sensor_id;sensor_type;location;lat;lon;timestamp;P1;durP1;ratioP1;P2;durP2;ratioP2
16954;SDS011;8594;52.052;8.354;2023-07-28T00:02:07;6.90;;;5.27;;
16954;SDS011;8594;52.052;8.354;2023-07-28T00:04:34;8.77;;;4.80;;
16954;SDS011;8594;52.052;8.354;2023-07-28T00:07:01;7.30;;;4.87;;
16954;SDS011;8594;52.052;8.354;2023-07-28T00:09:28;6.93;;;4.60;;
16954;SDS011;8594;52.052;8.354;2023-07-28T00:11:55;7.57;;;5.27;;
16954;SDS011;8594;52.052;8.354;2023-07-28T00:14:24;6.73;;;5.03;;
16954;SDS011;8594;52.052;8.354;2023-07-28T00:16:51;7.40;;;5.33;;
16954;SDS011;8594;52.052;8.354;2023-07-28T00:19:19;5.93;;;4.90;;
16954;SDS011;8594;52.052;8.354;2023-07-28T00:21:46;7.17;;;4.67;;
16954;SDS011;8594;52.052;8.354;2023-07-28T00:24:14;8.10;;;5.00;;
16954;SDS011;8594;52.052;8.354;2023-07-28T00:26:41;6.70;;;4.87;;
16954;SDS011;8594;52.052;8.354;2023-07-28T00:29:08;5.33;;;4.77;;
16954;SDS011;8594;52.052;8.354;2023-07-28T00:31:36;6.63;;;4.50;;
16954;SDS011;8594;52.052;8.354;2023-07-28T00:34:03;5.60;;;3.83;;
16954;SDS011;8594;52.052;8.354;2023-07-28T00:36:30;4.57;;;3.87;;
16954;SDS011;8594;52.052;8.354;2023-07-28T00:38:58;4.60;;;4.10;;
16954;SDS011;8594;52.052;8.354;2023-07-28T00:41:25;5.30;;;3.80;;
16954;SDS011;8594;52.052;8.354;2023-07-28T00:43:51;4.30;;;3.70;;
16954;SDS011;8594;52.052;8.354;2023-07-28T00:46:18;7.40;;;3.90;;
16954;SDS011;8594;52.052;8.354;2023-07-28T00:48:47;5.00;;;4.10;;
16954;SDS011;8594;52.052;8.354;2023-07-28T00:51:14;7.40;;;3.90;;
16954;SDS011;8594;52.052;8.354;2023-07-28T00:53:41;5.70;;;3.53;;
16954;SDS011;8594;52.052;8.354;2023-07-28T00:56:09;4.00;;;3.47;;
16954;SDS011;8594;52.052;8.354;2023-07-28T00:58:37;4.30;;;3.60;;
16954;SDS011;8594;52.052;8.354;2023-07-28T01:01:04;5.07;;;3.67;;
16954;SDS011;8594;52.052;8.354;2023-07-28T01:03:31;4.93;;;3.60;;
16954;SDS011;8594;52.052;8.354;2023-07-28T01:06:02;6.03;;;3.80;;
16954;SDS011;8594;52.052;8.354;2023-07-28T01:08:46;4.17;;;3.60;;
16954;SDS011;8594;52.052;8.354;2023-07-28T01:11:24;4.03;;;3.30;;
16954;SDS011;8594;52.052;8.354;2023-07-28T01:13:51;5.57;;;3.40;;
16954;SDS011;8594;52.052;8.354;2023-07-28T01:16:18;7.57;;;3.77;;
16954;SDS011;8594;52.052;8.354;2023-07-28T01:18:45;6.00;;;3.60;;
16954;SDS011;8594;52.052;8.354;2023-07-28T01:21:21;4.47;;;3.73;;
16954;SDS011;8594;52.052;8.354;2023-07-28T01:23:56;4.60;;;3.60;;
16954;SDS011;8594;52.052;8.354;2023-07-28T01:26:38;4.50;;;3.50;;
16954;SDS011;8594;52.052;8.354;2023-07-28T01:29:06;5.03;;;3.50;;
16954;SDS011;8594;52.052;8.354;2023-07-28T01:31:33;4.63;;;3.07;;
16954;SDS011;8594;52.052;8.354;2023-07-28T01:34:00;5.10;;;3.73;;
16954;SDS011;8594;52.052;8.354;2023-07-28T01:36:27;4.63;;;3.93;;
16954;SDS011;8594;52.052;8.354;2023-07-28T01:38:54;6.30;;;4.83;;
16954;SDS011;8594;52.052;8.354;2023-07-28T01:41:21;6.27;;;3.90;;
16954;SDS011;8594;52.052;8.354;2023-07-28T01:43:49;5.47;;;3.53;;
16954;SDS011;8594;52.052;8.354;2023-07-28T01:46:16;4.57;;;3.80;;
16954;SDS011;8594;52.052;8.354;2023-07-28T01:48:43;5.13;;;4.33;;
16954;SDS011;8594;52.052;8.354;2023-07-28T01:51:09;9.00;;;4.37;;
16954;SDS011;8594;52.052;8.354;2023-07-28T01:53:36;4.70;;;3.63;;
16954;SDS011;8594;52.052;8.354;2023-07-28T01:56:03;5.33;;;4.03;;
16954;SDS011;8594;52.052;8.354;2023-07-28T01:58:30;9.00;;;4.50;;
16954;SDS011;8594;52.052;8.354;2023-07-28T02:00:58;5.93;;;4.23;;
16954;SDS011;8594;52.052;8.354;2023-07-28T02:03:25;5.20;;;4.20;;
16954;SDS011;8594;52.052;8.354;2023-07-28T02:05:52;5.27;;;4.17;;
16954;SDS011;8594;52.052;8.354;2023-07-28T02:08:19;6.13;;;4.00;;
16954;SDS011;8594;52.052;8.354;2023-07-28T02:10:45;5.77;;;4.73;;
16954;SDS011;8594;52.052;8.354;2023-07-28T02:13:12;7.00;;;5.17;;
16954;SDS011;8594;52.052;8.354;2023-07-28T02:15:39;7.60;;;4.63;;
16954;SDS011;8594;52.052;8.354;2023-07-28T02:18:07;6.57;;;4.60;;
16954;SDS011;8594;52.052;8.354;2023-07-28T02:20:35;8.47;;;4.80;;
16954;SDS011;8594;52.052;8.354;2023-07-28T02:23:02;6.20;;;4.80;;
16954;SDS011;8594;52.052;8.354;2023-07-28T02:25:29;6.07;;;5.17;;
16954;SDS011;8594;52.052;8.354;2023-07-28T02:27:56;6.50;;;5.40;;
16954;SDS011;8594;52.052;8.354;2023-07-28T02:30:23;6.77;;;5.27;;
16954;SDS011;8594;52.052;8.354;2023-07-28T02:32:50;8.07;;;5.50;;
16954;SDS011;8594;52.052;8.354;2023-07-28T02:35:18;6.87;;;5.80;;
16954;SDS011;8594;52.052;8.354;2023-07-28T02:37:45;8.30;;;6.40;;
16954;SDS011;8594;52.052;8.354;2023-07-28T02:40:12;8.47;;;6.30;;
16954;SDS011;8594;52.052;8.354;2023-07-28T02:42:39;7.83;;;6.57;;
16954;SDS011;8594;52.052;8.354;2023-07-28T02:45:06;7.27;;;6.00;;
16954;SDS011;8594;52.052;8.354;2023-07-28T02:47:35;9.23;;;6.17;;
16954;SDS011;8594;52.052;8.354;2023-07-28T02:50:02;7.37;;;5.50;;
16954;SDS011;8594;52.052;8.354;2023-07-28T02:52:31;7.43;;;5.57;;
16954;SDS011;8594;52.052;8.354;2023-07-28T02:54:58;11.00;;;5.80;;
16954;SDS011;8594;52.052;8.354;2023-07-28T02:57:25;10.13;;;5.60;;
16954;SDS011;8594;52.052;8.354;2023-07-28T02:59:51;9.40;;;5.63;;
16954;SDS011;8594;52.052;8.354;2023-07-28T03:02:18;7.90;;;5.87;;
16954;SDS011;8594;52.052;8.354;2023-07-28T03:04:45;6.97;;;5.53;;
16954;SDS011;8594;52.052;8.354;2023-07-28T03:07:12;11.20;;;5.10;;
16954;SDS011;8594;52.052;8.354;2023-07-28T03:09:40;6.50;;;5.80;;
16954;SDS011;8594;52.052;8.354;2023-07-28T03:12:08;7.60;;;5.00;;
16954;SDS011;8594;52.052;8.354;2023-07-28T03:14:35;6.17;;;4.77;;
16954;SDS011;8594;52.052;8.354;2023-07-28T03:17:02;7.33;;;5.07;;
16954;SDS011;8594;52.052;8.354;2023-07-28T03:19:29;8.20;;;5.13;;
16954;SDS011;8594;52.052;8.354;2023-07-28T03:21:56;7.97;;;5.27;;
16954;SDS011;8594;52.052;8.354;2023-07-28T03:24:23;7.77;;;5.03;;
16954;SDS011;8594;52.052;8.354;2023-07-28T03:26:51;7.57;;;4.87;;
16954;SDS011;8594;52.052;8.354;2023-07-28T03:29:18;8.17;;;5.10;;
16954;SDS011;8594;52.052;8.354;2023-07-28T03:31:45;9.87;;;5.10;;
16954;SDS011;8594;52.052;8.354;2023-07-28T03:34:12;5.50;;;4.80;;
16954;SDS011;8594;52.052;8.354;2023-07-28T03:36:39;6.63;;;5.00;;
16954;SDS011;8594;52.052;8.354;2023-07-28T03:39:06;10.20;;;5.50;;
16954;SDS011;8594;52.052;8.354;2023-07-28T03:41:33;7.07;;;5.43;;
16954;SDS011;8594;52.052;8.354;2023-07-28T03:44:01;7.83;;;5.33;;
16954;SDS011;8594;52.052;8.354;2023-07-28T03:46:29;10.03;;;6.27;;
16954;SDS011;8594;52.052;8.354;2023-07-28T03:48:55;8.93;;;5.80;;
16954;SDS011;8594;52.052;8.354;2023-07-28T03:51:23;10.00;;;6.20;;
16954;SDS011;8594;52.052;8.354;2023-07-28T03:53:50;6.97;;;5.37;;
16954;SDS011;8594;52.052;8.354;2023-07-28T03:56:17;13.77;;;6.30;;
16954;SDS011;8594;52.052;8.354;2023-07-28T03:58:44;8.43;;;6.20;;
16954;SDS011;8594;52.052;8.354;2023-07-28T04:01:12;6.07;;;5.47;;
16954;SDS011;8594;52.052;8.354;2023-07-28T04:03:39;7.70;;;5.20;;
16954;SDS011;8594;52.052;8.354;2023-07-28T04:06:10;10.10;;;5.23;;
16954;SDS011;8594;52.052;8.354;2023-07-28T04:08:37;6.83;;;5.43;;
16954;SDS011;8594;52.052;8.354;2023-07-28T04:11:04;7.83;;;5.47;;
16954;SDS011;8594;52.052;8.354;2023-07-28T04:13:32;7.93;;;5.97;;
16954;SDS011;8594;52.052;8.354;2023-07-28T04:15:59;8.00;;;5.47;;
16954;SDS011;8594;52.052;8.354;2023-07-28T04:18:28;7.90;;;5.57;;
16954;SDS011;8594;52.052;8.354;2023-07-28T04:20:56;7.23;;;5.37;;
16954;SDS011;8594;52.052;8.354;2023-07-28T04:23:23;7.13;;;5.77;;
16954;SDS011;8594;52.052;8.354;2023-07-28T04:25:50;8.30;;;5.90;;
16954;SDS011;8594;52.052;8.354;2023-07-28T04:28:17;8.10;;;5.23;;
16954;SDS011;8594;52.052;8.354;2023-07-28T04:30:44;11.63;;;6.10;;
16954;SDS011;8594;52.052;8.354;2023-07-28T04:33:11;7.70;;;5.30;;
16954;SDS011;8594;52.052;8.354;2023-07-28T04:35:39;7.70;;;5.83;;
16954;SDS011;8594;52.052;8.354;2023-07-28T04:38:07;7.43;;;5.80;;
16954;SDS011;8594;52.052;8.354;2023-07-28T04:40:33;7.40;;;5.13;;
16954;SDS011;8594;52.052;8.354;2023-07-28T04:43:00;8.97;;;6.43;;
16954;SDS011;8594;52.052;8.354;2023-07-28T04:45:27;8.30;;;5.90;;
16954;SDS011;8594;52.052;8.354;2023-07-28T04:47:54;9.20;;;6.40;;
16954;SDS011;8594;52.052;8.354;2023-07-28T04:50:21;9.07;;;6.47;;
16954;SDS011;8594;52.052;8.354;2023-07-28T04:52:49;9.87;;;7.20;;
16954;SDS011;8594;52.052;8.354;2023-07-28T04:55:16;8.83;;;6.60;;
16954;SDS011;8594;52.052;8.354;2023-07-28T04:57:43;9.77;;;7.07;;
16954;SDS011;8594;52.052;8.354;2023-07-28T05:00:10;9.90;;;7.03;;
16954;SDS011;8594;52.052;8.354;2023-07-28T05:02:38;11.27;;;7.17;;
16954;SDS011;8594;52.052;8.354;2023-07-28T05:05:05;9.27;;;7.70;;
16954;SDS011;8594;52.052;8.354;2023-07-28T05:07:33;11.40;;;8.00;;
16954;SDS011;8594;52.052;8.354;2023-07-28T05:10:01;12.60;;;8.17;;
16954;SDS011;8594;52.052;8.354;2023-07-28T05:12:28;10.73;;;8.30;;
16954;SDS011;8594;52.052;8.354;2023-07-28T05:14:55;12.63;;;8.57;;
16954;SDS011;8594;52.052;8.354;2023-07-28T05:17:22;11.30;;;8.93;;
16954;SDS011;8594;52.052;8.354;2023-07-28T05:19:49;12.30;;;9.10;;
16954;SDS011;8594;52.052;8.354;2023-07-28T05:22:16;10.93;;;8.83;;
16954;SDS011;8594;52.052;8.354;2023-07-28T05:24:43;13.13;;;8.90;;
16954;SDS011;8594;52.052;8.354;2023-07-28T05:27:11;13.13;;;9.30;;
16954;SDS011;8594;52.052;8.354;2023-07-28T05:29:39;14.73;;;9.43;;
16954;SDS011;8594;52.052;8.354;2023-07-28T05:32:06;15.00;;;9.30;;
16954;SDS011;8594;52.052;8.354;2023-07-28T05:34:34;14.03;;;9.43;;
16954;SDS011;8594;52.052;8.354;2023-07-28T05:37:00;15.60;;;9.80;;
16954;SDS011;8594;52.052;8.354;2023-07-28T05:39:27;13.00;;;8.97;;
16954;SDS011;8594;52.052;8.354;2023-07-28T05:41:54;12.50;;;9.57;;
16954;SDS011;8594;52.052;8.354;2023-07-28T05:44:23;12.13;;;9.23;;
16954;SDS011;8594;52.052;8.354;2023-07-28T05:46:49;12.73;;;9.30;;
16954;SDS011;8594;52.052;8.354;2023-07-28T05:49:16;13.27;;;10.13;;
16954;SDS011;8594;52.052;8.354;2023-07-28T05:51:43;13.67;;;9.33;;
16954;SDS011;8594;52.052;8.354;2023-07-28T05:54:11;17.00;;;10.17;;
16954;SDS011;8594;52.052;8.354;2023-07-28T05:56:39;15.33;;;10.13;;
16954;SDS011;8594;52.052;8.354;2023-07-28T05:59:06;14.60;;;9.80;;
16954;SDS011;8594;52.052;8.354;2023-07-28T06:01:35;12.80;;;9.67;;
16954;SDS011;8594;52.052;8.354;2023-07-28T06:04:02;13.80;;;9.73;;
16954;SDS011;8594;52.052;8.354;2023-07-28T06:06:29;16.07;;;10.23;;
16954;SDS011;8594;52.052;8.354;2023-07-28T06:08:57;16.57;;;10.87;;
16954;SDS011;8594;52.052;8.354;2023-07-28T06:11:23;14.83;;;10.27;;
16954;SDS011;8594;52.052;8.354;2023-07-28T06:13:51;15.80;;;11.17;;
16954;SDS011;8594;52.052;8.354;2023-07-28T06:16:18;20.70;;;10.80;;
16954;SDS011;8594;52.052;8.354;2023-07-28T06:18:46;16.20;;;9.97;;
16954;SDS011;8594;52.052;8.354;2023-07-28T06:21:13;13.27;;;10.37;;
16954;SDS011;8594;52.052;8.354;2023-07-28T06:23:40;19.53;;;10.57;;
16954;SDS011;8594;52.052;8.354;2023-07-28T06:26:06;16.97;;;10.93;;
16954;SDS011;8594;52.052;8.354;2023-07-28T06:28:33;16.50;;;10.77;;
16954;SDS011;8594;52.052;8.354;2023-07-28T06:31:02;15.43;;;11.17;;
16954;SDS011;8594;52.052;8.354;2023-07-28T06:33:29;15.50;;;10.97;;
16954;SDS011;8594;52.052;8.354;2023-07-28T06:35:57;17.03;;;11.33;;
16954;SDS011;8594;52.052;8.354;2023-07-28T06:38:24;13.43;;;10.20;;
16954;SDS011;8594;52.052;8.354;2023-07-28T06:40:52;13.77;;;10.57;;
16954;SDS011;8594;52.052;8.354;2023-07-28T06:43:19;14.97;;;10.17;;
16954;SDS011;8594;52.052;8.354;2023-07-28T06:45:46;16.37;;;10.20;;
16954;SDS011;8594;52.052;8.354;2023-07-28T06:48:13;12.40;;;9.33;;
16954;SDS011;8594;52.052;8.354;2023-07-28T06:50:39;16.40;;;10.20;;
16954;SDS011;8594;52.052;8.354;2023-07-28T06:53:08;17.63;;;11.57;;
16954;SDS011;8594;52.052;8.354;2023-07-28T06:55:35;18.63;;;11.00;;
16954;SDS011;8594;52.052;8.354;2023-07-28T06:58:04;15.73;;;10.90;;
16954;SDS011;8594;52.052;8.354;2023-07-28T07:00:30;17.63;;;11.07;;
16954;SDS011;8594;52.052;8.354;2023-07-28T07:02:58;15.30;;;10.67;;
16954;SDS011;8594;52.052;8.354;2023-07-28T07:05:25;17.50;;;10.87;;
16954;SDS011;8594;52.052;8.354;2023-07-28T07:07:52;16.13;;;10.80;;
16954;SDS011;8594;52.052;8.354;2023-07-28T07:10:20;19.70;;;12.57;;
16954;SDS011;8594;52.052;8.354;2023-07-28T07:12:47;16.20;;;11.00;;
16954;SDS011;8594;52.052;8.354;2023-07-28T07:15:14;18.57;;;11.63;;
16954;SDS011;8594;52.052;8.354;2023-07-28T07:17:41;16.97;;;10.97;;
16954;SDS011;8594;52.052;8.354;2023-07-28T07:20:08;17.70;;;11.70;;
16954;SDS011;8594;52.052;8.354;2023-07-28T07:22:36;15.67;;;10.80;;
16954;SDS011;8594;52.052;8.354;2023-07-28T07:25:03;18.73;;;11.27;;
16954;SDS011;8594;52.052;8.354;2023-07-28T07:27:33;18.33;;;11.90;;
16954;SDS011;8594;52.052;8.354;2023-07-28T07:30:00;17.20;;;11.27;;
16954;SDS011;8594;52.052;8.354;2023-07-28T07:32:28;17.60;;;11.97;;
16954;SDS011;8594;52.052;8.354;2023-07-28T07:34:54;15.87;;;10.07;;
16954;SDS011;8594;52.052;8.354;2023-07-28T07:37:21;15.57;;;11.13;;
16954;SDS011;8594;52.052;8.354;2023-07-28T07:39:48;26.47;;;11.13;;
16954;SDS011;8594;52.052;8.354;2023-07-28T07:42:15;17.37;;;12.13;;
16954;SDS011;8594;52.052;8.354;2023-07-28T07:44:43;15.73;;;10.50;;
16954;SDS011;8594;52.052;8.354;2023-07-28T07:47:11;15.40;;;10.37;;
16954;SDS011;8594;52.052;8.354;2023-07-28T07:49:39;17.77;;;9.47;;
16954;SDS011;8594;52.052;8.354;2023-07-28T07:52:06;12.53;;;9.00;;
16954;SDS011;8594;52.052;8.354;2023-07-28T07:54:34;12.57;;;8.17;;
16954;SDS011;8594;52.052;8.354;2023-07-28T07:57:01;11.20;;;7.83;;
16954;SDS011;8594;52.052;8.354;2023-07-28T07:59:29;17.57;;;8.67;;
16954;SDS011;8594;52.052;8.354;2023-07-28T08:01:59;10.63;;;7.60;;
16954;SDS011;8594;52.052;8.354;2023-07-28T08:04:27;12.90;;;7.03;;
16954;SDS011;8594;52.052;8.354;2023-07-28T08:06:56;12.53;;;7.07;;
16954;SDS011;8594;52.052;8.354;2023-07-28T08:09:23;9.83;;;6.70;;
16954;SDS011;8594;52.052;8.354;2023-07-28T08:11:50;9.23;;;6.40;;
16954;SDS011;8594;52.052;8.354;2023-07-28T08:14:18;16.50;;;6.97;;
16954;SDS011;8594;52.052;8.354;2023-07-28T08:16:44;8.70;;;6.57;;
16954;SDS011;8594;52.052;8.354;2023-07-28T08:19:13;10.50;;;6.37;;
16954;SDS011;8594;52.052;8.354;2023-07-28T08:21:40;9.80;;;6.60;;
16954;SDS011;8594;52.052;8.354;2023-07-28T08:24:07;8.87;;;5.73;;
16954;SDS011;8594;52.052;8.354;2023-07-28T08:26:34;8.13;;;5.70;;
16954;SDS011;8594;52.052;8.354;2023-07-28T08:29:00;11.03;;;5.93;;
16954;SDS011;8594;52.052;8.354;2023-07-28T08:31:27;12.57;;;6.23;;
16954;SDS011;8594;52.052;8.354;2023-07-28T08:33:54;9.93;;;6.20;;
16954;SDS011;8594;52.052;8.354;2023-07-28T08:36:23;15.20;;;6.57;;
16954;SDS011;8594;52.052;8.354;2023-07-28T08:38:49;12.70;;;7.77;;
16954;SDS011;8594;52.052;8.354;2023-07-28T08:41:16;13.63;;;8.80;;
16954;SDS011;8594;52.052;8.354;2023-07-28T08:43:44;11.43;;;6.43;;
16954;SDS011;8594;52.052;8.354;2023-07-28T08:46:11;10.00;;;6.03;;
16954;SDS011;8594;52.052;8.354;2023-07-28T08:48:38;8.90;;;5.73;;
16954;SDS011;8594;52.052;8.354;2023-07-28T08:51:05;10.10;;;6.73;;
16954;SDS011;8594;52.052;8.354;2023-07-28T08:53:35;10.47;;;6.10;;
16954;SDS011;8594;52.052;8.354;2023-07-28T08:56:01;9.80;;;7.03;;
16954;SDS011;8594;52.052;8.354;2023-07-28T08:58:29;11.13;;;7.13;;
16954;SDS011;8594;52.052;8.354;2023-07-28T09:00:56;28.23;;;14.87;;
16954;SDS011;8594;52.052;8.354;2023-07-28T09:03:26;13.07;;;7.67;;
16954;SDS011;8594;52.052;8.354;2023-07-28T09:05:54;11.53;;;7.40;;
16954;SDS011;8594;52.052;8.354;2023-07-28T09:08:27;10.83;;;7.27;;
16954;SDS011;8594;52.052;8.354;2023-07-28T09:11:01;12.23;;;6.93;;
16954;SDS011;8594;52.052;8.354;2023-07-28T09:13:34;10.53;;;6.40;;
16954;SDS011;8594;52.052;8.354;2023-07-28T09:16:03;11.57;;;7.03;;
16954;SDS011;8594;52.052;8.354;2023-07-28T09:18:30;9.23;;;6.60;;
16954;SDS011;8594;52.052;8.354;2023-07-28T09:20:57;10.97;;;7.60;;
16954;SDS011;8594;52.052;8.354;2023-07-28T09:23:27;9.73;;;6.80;;
16954;SDS011;8594;52.052;8.354;2023-07-28T09:25:59;8.77;;;6.30;;
16954;SDS011;8594;52.052;8.354;2023-07-28T09:28:36;9.17;;;6.50;;
16954;SDS011;8594;52.052;8.354;2023-07-28T09:31:04;15.70;;;7.13;;
16954;SDS011;8594;52.052;8.354;2023-07-28T09:33:32;7.97;;;5.70;;
16954;SDS011;8594;52.052;8.354;2023-07-28T09:36:06;11.23;;;6.50;;
16954;SDS011;8594;52.052;8.354;2023-07-28T09:38:35;8.87;;;6.07;;
16954;SDS011;8594;52.052;8.354;2023-07-28T09:41:07;8.17;;;6.10;;
16954;SDS011;8594;52.052;8.354;2023-07-28T09:43:36;10.50;;;6.73;;
16954;SDS011;8594;52.052;8.354;2023-07-28T09:46:06;8.57;;;6.03;;
16954;SDS011;8594;52.052;8.354;2023-07-28T09:48:34;8.47;;;5.77;;
16954;SDS011;8594;52.052;8.354;2023-07-28T09:51:05;8.97;;;7.10;;
16954;SDS011;8594;52.052;8.354;2023-07-28T09:53:44;9.17;;;5.80;;
16954;SDS011;8594;52.052;8.354;2023-07-28T09:56:16;10.27;;;6.70;;
16954;SDS011;8594;52.052;8.354;2023-07-28T09:58:49;9.73;;;5.83;;
16954;SDS011;8594;52.052;8.354;2023-07-28T10:01:18;8.97;;;6.40;;
16954;SDS011;8594;52.052;8.354;2023-07-28T10:03:46;8.30;;;5.77;;
16954;SDS011;8594;52.052;8.354;2023-07-28T10:06:14;9.37;;;7.00;;
16954;SDS011;8594;52.052;8.354;2023-07-28T10:08:43;9.87;;;7.10;;
16954;SDS011;8594;52.052;8.354;2023-07-28T10:11:11;14.63;;;7.23;;
16954;SDS011;8594;52.052;8.354;2023-07-28T10:13:42;12.83;;;7.43;;
16954;SDS011;8594;52.052;8.354;2023-07-28T10:16:11;14.30;;;8.77;;
16954;SDS011;8594;52.052;8.354;2023-07-28T10:18:40;13.47;;;7.50;;
16954;SDS011;8594;52.052;8.354;2023-07-28T10:21:08;12.13;;;7.17;;
16954;SDS011;8594;52.052;8.354;2023-07-28T10:23:41;11.90;;;7.73;;
16954;SDS011;8594;52.052;8.354;2023-07-28T10:26:10;13.50;;;7.73;;
16954;SDS011;8594;52.052;8.354;2023-07-28T10:28:37;13.43;;;8.53;;
16954;SDS011;8594;52.052;8.354;2023-07-28T10:31:08;13.17;;;8.67;;
16954;SDS011;8594;52.052;8.354;2023-07-28T10:33:37;14.80;;;8.13;;
16954;SDS011;8594;52.052;8.354;2023-07-28T10:36:11;12.83;;;8.80;;
16954;SDS011;8594;52.052;8.354;2023-07-28T10:38:40;11.17;;;7.90;;
16954;SDS011;8594;52.052;8.354;2023-07-28T10:41:12;12.40;;;7.50;;
16954;SDS011;8594;52.052;8.354;2023-07-28T10:43:42;12.50;;;7.67;;
16954;SDS011;8594;52.052;8.354;2023-07-28T10:46:12;12.33;;;8.10;;
16954;SDS011;8594;52.052;8.354;2023-07-28T10:48:42;9.73;;;7.70;;
16954;SDS011;8594;52.052;8.354;2023-07-28T10:51:12;11.17;;;7.50;;
16954;SDS011;8594;52.052;8.354;2023-07-28T10:53:49;10.47;;;7.30;;
16954;SDS011;8594;52.052;8.354;2023-07-28T10:56:17;12.50;;;8.00;;
16954;SDS011;8594;52.052;8.354;2023-07-28T10:58:44;10.40;;;6.50;;
16954;SDS011;8594;52.052;8.354;2023-07-28T11:01:13;12.87;;;7.73;;
16954;SDS011;8594;52.052;8.354;2023-07-28T11:03:41;10.07;;;7.60;;
16954;SDS011;8594;52.052;8.354;2023-07-28T11:06:08;10.23;;;7.67;;
16954;SDS011;8594;52.052;8.354;2023-07-28T11:08:35;14.27;;;8.30;;
16954;SDS011;8594;52.052;8.354;2023-07-28T11:11:04;10.77;;;7.10;;
16954;SDS011;8594;52.052;8.354;2023-07-28T11:13:32;11.80;;;7.30;;
16954;SDS011;8594;52.052;8.354;2023-07-28T11:15:59;9.43;;;6.93;;
16954;SDS011;8594;52.052;8.354;2023-07-28T11:18:28;11.97;;;6.70;;
16954;SDS011;8594;52.052;8.354;2023-07-28T11:20:55;9.67;;;6.60;;
16954;SDS011;8594;52.052;8.354;2023-07-28T11:23:22;9.87;;;6.57;;
16954;SDS011;8594;52.052;8.354;2023-07-28T11:25:50;11.50;;;6.70;;
16954;SDS011;8594;52.052;8.354;2023-07-28T11:28:18;10.07;;;6.00;;
16954;SDS011;8594;52.052;8.354;2023-07-28T11:30:45;8.70;;;6.50;;
16954;SDS011;8594;52.052;8.354;2023-07-28T11:33:13;9.80;;;6.83;;
16954;SDS011;8594;52.052;8.354;2023-07-28T11:35:43;11.30;;;5.90;;
16954;SDS011;8594;52.052;8.354;2023-07-28T11:38:11;9.17;;;5.73;;
16954;SDS011;8594;52.052;8.354;2023-07-28T11:40:40;8.43;;;6.83;;
16954;SDS011;8594;52.052;8.354;2023-07-28T11:43:08;8.67;;;5.77;;
16954;SDS011;8594;52.052;8.354;2023-07-28T11:45:35;9.03;;;6.30;;
16954;SDS011;8594;52.052;8.354;2023-07-28T11:48:02;11.03;;;6.03;;
16954;SDS011;8594;52.052;8.354;2023-07-28T11:50:34;9.43;;;6.17;;
16954;SDS011;8594;52.052;8.354;2023-07-28T11:53:05;9.70;;;6.43;;
16954;SDS011;8594;52.052;8.354;2023-07-28T11:55:34;6.63;;;5.40;;
16954;SDS011;8594;52.052;8.354;2023-07-28T11:58:02;8.47;;;6.20;;
16954;SDS011;8594;52.052;8.354;2023-07-28T12:00:31;9.93;;;6.33;;
16954;SDS011;8594;52.052;8.354;2023-07-28T12:03:00;9.87;;;6.33;;
16954;SDS011;8594;52.052;8.354;2023-07-28T12:05:30;16.93;;;6.77;;
16954;SDS011;8594;52.052;8.354;2023-07-28T12:07:58;9.50;;;6.27;;
16954;SDS011;8594;52.052;8.354;2023-07-28T12:10:27;9.00;;;6.50;;
16954;SDS011;8594;52.052;8.354;2023-07-28T12:12:54;10.70;;;6.70;;
16954;SDS011;8594;52.052;8.354;2023-07-28T12:15:22;9.97;;;7.33;;
16954;SDS011;8594;52.052;8.354;2023-07-28T12:18:11;11.43;;;6.90;;
16954;SDS011;8594;52.052;8.354;2023-07-28T12:20:41;12.17;;;6.63;;
16954;SDS011;8594;52.052;8.354;2023-07-28T12:23:12;9.83;;;6.80;;
16954;SDS011;8594;52.052;8.354;2023-07-28T12:25:41;9.53;;;6.73;;
16954;SDS011;8594;52.052;8.354;2023-07-28T12:28:10;10.33;;;6.60;;
16954;SDS011;8594;52.052;8.354;2023-07-28T12:30:37;9.20;;;6.20;;
16954;SDS011;8594;52.052;8.354;2023-07-28T12:33:05;10.33;;;6.03;;
16954;SDS011;8594;52.052;8.354;2023-07-28T12:35:33;8.77;;;6.27;;
16954;SDS011;8594;52.052;8.354;2023-07-28T12:38:01;11.87;;;6.10;;
16954;SDS011;8594;52.052;8.354;2023-07-28T12:40:29;7.90;;;6.13;;
16954;SDS011;8594;52.052;8.354;2023-07-28T12:43:00;9.10;;;5.67;;
16954;SDS011;8594;52.052;8.354;2023-07-28T12:45:29;8.10;;;5.90;;
16954;SDS011;8594;52.052;8.354;2023-07-28T12:47:56;7.67;;;6.03;;
16954;SDS011;8594;52.052;8.354;2023-07-28T12:50:24;9.03;;;6.20;;
16954;SDS011;8594;52.052;8.354;2023-07-28T12:52:51;10.00;;;6.10;;
16954;SDS011;8594;52.052;8.354;2023-07-28T12:55:18;9.40;;;5.90;;
16954;SDS011;8594;52.052;8.354;2023-07-28T12:57:45;11.90;;;6.30;;
16954;SDS011;8594;52.052;8.354;2023-07-28T13:00:15;7.33;;;5.23;;
16954;SDS011;8594;52.052;8.354;2023-07-28T13:02:43;7.17;;;5.30;;
16954;SDS011;8594;52.052;8.354;2023-07-28T13:05:12;6.93;;;5.27;;
16954;SDS011;8594;52.052;8.354;2023-07-28T13:07:42;10.20;;;6.23;;
16954;SDS011;8594;52.052;8.354;2023-07-28T13:10:09;8.27;;;5.77;;
16954;SDS011;8594;52.052;8.354;2023-07-28T13:12:37;7.80;;;5.93;;
16954;SDS011;8594;52.052;8.354;2023-07-28T13:15:05;9.23;;;6.20;;
16954;SDS011;8594;52.052;8.354;2023-07-28T13:17:34;10.67;;;5.93;;
16954;SDS011;8594;52.052;8.354;2023-07-28T13:20:02;8.97;;;6.70;;
16954;SDS011;8594;52.052;8.354;2023-07-28T13:22:31;12.03;;;6.57;;
16954;SDS011;8594;52.052;8.354;2023-07-28T13:24:59;9.00;;;6.50;;
16954;SDS011;8594;52.052;8.354;2023-07-28T13:27:25;6.97;;;5.20;;
16954;SDS011;8594;52.052;8.354;2023-07-28T13:29:52;7.47;;;5.67;;
16954;SDS011;8594;52.052;8.354;2023-07-28T13:32:22;9.40;;;6.33;;
16954;SDS011;8594;52.052;8.354;2023-07-28T13:34:52;8.47;;;5.97;;
16954;SDS011;8594;52.052;8.354;2023-07-28T13:37:19;8.33;;;6.50;;
16954;SDS011;8594;52.052;8.354;2023-07-28T13:39:46;10.00;;;6.57;;
16954;SDS011;8594;52.052;8.354;2023-07-28T13:42:13;8.43;;;5.97;;
16954;SDS011;8594;52.052;8.354;2023-07-28T13:44:40;8.40;;;5.97;;
16954;SDS011;8594;52.052;8.354;2023-07-28T13:47:08;10.20;;;6.27;;
16954;SDS011;8594;52.052;8.354;2023-07-28T13:49:35;7.70;;;5.90;;
16954;SDS011;8594;52.052;8.354;2023-07-28T13:52:04;8.23;;;6.30;;
16954;SDS011;8594;52.052;8.354;2023-07-28T13:54:32;8.83;;;6.20;;
16954;SDS011;8594;52.052;8.354;2023-07-28T13:56:59;11.53;;;5.90;;
16954;SDS011;8594;52.052;8.354;2023-07-28T13:59:26;9.00;;;5.57;;
16954;SDS011;8594;52.052;8.354;2023-07-28T14:01:53;9.57;;;5.67;;
16954;SDS011;8594;52.052;8.354;2023-07-28T14:04:20;10.40;;;5.13;;
16954;SDS011;8594;52.052;8.354;2023-07-28T14:06:47;10.90;;;6.23;;
16954;SDS011;8594;52.052;8.354;2023-07-28T14:09:15;8.57;;;6.30;;
16954;SDS011;8594;52.052;8.354;2023-07-28T14:11:42;8.07;;;5.20;;
16954;SDS011;8594;52.052;8.354;2023-07-28T14:14:09;6.73;;;5.00;;
16954;SDS011;8594;52.052;8.354;2023-07-28T14:16:36;7.03;;;5.13;;
16954;SDS011;8594;52.052;8.354;2023-07-28T14:19:03;7.93;;;5.93;;
16954;SDS011;8594;52.052;8.354;2023-07-28T14:21:29;9.27;;;6.30;;
16954;SDS011;8594;52.052;8.354;2023-07-28T14:23:57;9.20;;;6.00;;
16954;SDS011;8594;52.052;8.354;2023-07-28T14:26:26;8.17;;;5.90;;
16954;SDS011;8594;52.052;8.354;2023-07-28T14:28:52;8.27;;;5.60;;
16954;SDS011;8594;52.052;8.354;2023-07-28T14:31:19;7.80;;;5.63;;
16954;SDS011;8594;52.052;8.354;2023-07-28T14:33:46;12.73;;;5.50;;
16954;SDS011;8594;52.052;8.354;2023-07-28T14:36:13;9.03;;;5.33;;
16954;SDS011;8594;52.052;8.354;2023-07-28T14:38:40;7.30;;;5.60;;
16954;SDS011;8594;52.052;8.354;2023-07-28T14:41:07;6.67;;;5.20;;
16954;SDS011;8594;52.052;8.354;2023-07-28T14:43:35;7.07;;;4.70;;
16954;SDS011;8594;52.052;8.354;2023-07-28T14:46:02;6.43;;;4.43;;
16954;SDS011;8594;52.052;8.354;2023-07-28T14:48:29;8.93;;;4.60;;
16954;SDS011;8594;52.052;8.354;2023-07-28T14:50:56;7.40;;;4.73;;
16954;SDS011;8594;52.052;8.354;2023-07-28T14:53:32;6.53;;;4.50;;
16954;SDS011;8594;52.052;8.354;2023-07-28T14:56:02;7.80;;;4.63;;
16954;SDS011;8594;52.052;8.354;2023-07-28T14:58:30;13.97;;;4.60;;